Time;durP1;ratioP1;P1;durP2;ratioP2;P2;SDS_P1;SDS_P2;PMS_P1;PMS_P2;Temp;Humidity;BMP_temperature;BMP_pressure;BME280_temperature;BME280_humidity;BME280_pressure;Samples;Min_cycle;Max_cycle;Signal;HPM_P1;HPM_P2
2023/10/29 00:01:28;;;;;;;23.67;7.25;;;;;;;-149.70;100.00;76426.44;5024214;28;20053;-62
2023/10/29 00:03:55;;;;;;;23.38;7.25;;;;;;;-149.70;100.00;76414.25;5025091;28;20478;-61
2023/10/29 00:06:22;;;;;;;20.50;6.78;;;;;;;-149.70;100.00;76410.19;5023855;28;20061;-61
2023/10/29 00:08:49;;;;;;;17.42;5.97;;;;;;;-149.70;100.00;76410.19;5025216;28;20050;-62
2023/10/29 00:11:16;;;;;;;17.25;6.32;;;;;;;-149.70;100.00;76416.28;5024584;28;20054;-61
2023/10/29 00:13:43;;;;;;;20.42;5.40;;;;;;;-149.70;100.00;76412.22;5025100;28;20049;-61
2023/10/29 00:16:11;;;;;;;23.00;6.43;;;;;;;-149.70;100.00;76408.16;5024359;28;20046;-61
2023/10/29 00:18:38;;;;;;;17.50;5.40;;;;;;;-149.70;100.00;76416.28;5024295;28;20057;-61
2023/10/29 00:21:05;;;;;;;10.32;4.70;;;;;;;-149.70;100.00;76412.22;5007115;28;20520;-62
2023/10/29 00:23:33;;;;;;;17.35;5.95;;;;;;;-149.70;100.00;76408.16;5024792;28;20064;-62
2023/10/29 00:26:00;;;;;;;23.92;4.82;;;;;;;-149.70;100.00;76418.31;5023978;28;20532;-62
2023/10/29 00:28:27;;;;;;;14.95;4.75;;;;;;;-149.70;100.00;76412.22;5023679;28;20054;-62
2023/10/29 00:30:55;;;;;;;19.70;4.38;;;;;;;-149.70;100.00;76422.38;5024190;28;20080;-61
2023/10/29 00:33:22;;;;;;;11.75;4.22;;;;;;;-149.70;100.00;76422.38;5023726;28;20061;-62
2023/10/29 00:35:48;;;;;;;10.48;4.22;;;;;;;-149.70;100.00;76426.44;5024268;28;20042;-62
2023/10/29 00:38:16;;;;;;;14.80;3.90;;;;;;;-149.70;100.00;76412.22;5023318;28;20060;-61
2023/10/29 00:40:45;;;;;;;15.70;4.47;;;;;;;-149.70;100.00;76410.19;5022178;28;20057;-61
2023/10/29 00:43:15;;;;;;;13.63;4.07;;;;;;;-149.70;100.00;76422.38;5023016;28;20060;-62
2023/10/29 00:45:43;;;;;;;11.00;4.32;;;;;;;-149.70;100.00;76430.53;5022808;28;20049;-63
2023/10/29 00:48:11;;;;;;;14.00;5.00;;;;;;;-149.70;100.00;76420.34;5022834;28;20049;-62
2023/10/29 00:50:39;;;;;;;14.73;3.90;;;;;;;-149.70;100.00;76426.44;5023460;28;20049;-62
2023/10/29 00:53:06;;;;;;;13.43;4.30;;;;;;;-149.70;100.00;76432.56;5017337;28;20072;-62
2023/10/29 00:55:33;;;;;;;9.70;3.50;;;;;;;-149.70;100.00;76434.59;5003193;28;20058;-62
2023/10/29 00:58:00;;;;;;;11.38;3.80;;;;;;;-149.70;100.00;76432.56;5003860;28;20050;-62
2023/10/29 01:00:26;;;;;;;15.15;4.65;;;;;;;-149.70;100.00;76440.69;5003947;28;20077;-62
2023/10/29 01:02:53;;;;;;;17.77;4.45;;;;;;;-149.70;100.00;76438.66;5003993;28;20078;-62
2023/10/29 01:05:19;;;;;;;10.75;3.67;;;;;;;-149.70;100.00;76438.66;5004334;28;20047;-62
2023/10/29 01:07:46;;;;;;;13.90;3.75;;;;;;;-149.70;100.00;76440.69;5002679;28;20057;-62
2023/10/29 01:10:13;;;;;;;14.95;5.25;;;;;;;-149.70;100.00;76438.66;5003717;28;20046;-62
2023/10/29 01:12:40;;;;;;;8.75;4.10;;;;;;;-149.70;100.00;76430.53;5002307;28;20126;-62
2023/10/29 01:15:08;;;;;;;10.77;3.63;;;;;;;-149.70;100.00;76440.69;5003232;28;20093;-62
2023/10/29 01:17:34;;;;;;;10.98;3.60;;;;;;;-149.70;100.00;76434.59;5003764;28;20100;-62
2023/10/29 01:20:03;;;;;;;11.27;4.00;;;;;;;-149.70;100.00;76430.53;5003556;28;20074;-62
2023/10/29 01:22:33;;;;;;;12.45;4.07;;;;;;;-149.70;100.00;76426.44;5003074;28;20085;-62
2023/10/29 01:25:05;;;;;;;11.43;4.30;;;;;;;-149.70;100.00;76424.41;5003587;28;20487;-62
2023/10/29 01:27:33;;;;;;;;;;;;;;;-149.70;100.00;76434.59;5003398;28;20050;-62
2023/10/29 01:29:59;;;;;;;13.45;4.13;;;;;;;-149.70;100.00;76416.28;5002720;28;19921;-62
2023/10/29 01:32:28;;;;;;;13.93;3.95;;;;;;;-149.70;100.00;76414.25;5002513;28;20514;-61
2023/10/29 01:34:55;;;;;;;11.77;4.30;;;;;;;-149.70;100.00;76406.13;5002866;28;20046;-61
2023/10/29 01:37:22;;;;;;;10.80;3.65;;;;;;;-149.70;100.00;76400.03;5002020;28;20046;-62
2023/10/29 01:39:48;;;;;;;16.13;3.80;;;;;;;-149.70;100.00;76410.19;5002463;28;20073;-62
2023/10/29 01:42:15;;;;;;;14.73;3.58;;;;;;;-149.70;100.00;76412.22;5003021;28;20058;-61
2023/10/29 01:44:41;;;;;;;10.40;3.42;;;;;;;-149.70;100.00;76418.31;5001915;28;20058;-62
2023/10/29 01:47:08;;;;;;;9.38;3.50;;;;;;;-149.70;100.00;76422.38;5004199;28;20050;-62
2023/10/29 01:49:35;;;;;;;14.88;3.35;;;;;;;-149.70;100.00;76408.16;5002792;28;20438;-62
2023/10/29 01:52:01;;;;;;;10.85;3.85;;;;;;;-149.70;100.00;76397.97;5003389;28;20047;-61
2023/10/29 01:54:28;;;;;;;12.30;3.20;;;;;;;-149.70;100.00;76387.81;5018793;28;20089;-62
2023/10/29 01:56:55;;;;;;;11.40;3.38;;;;;;;-149.70;100.00;76385.78;5022543;28;20049;-61
2023/10/29 01:59:22;;;;;;;10.85;3.25;;;;;;;-149.70;100.00;76369.53;5022325;28;20054;-62
2023/10/29 02:01:49;;;;;;;11.13;3.88;;;;;;;-149.70;100.00;76393.91;5022655;28;20142;-62
2023/10/29 02:04:16;;;;;;;15.88;3.58;;;;;;;-149.70;100.00;76387.81;5022667;28;20092;-61
2023/10/29 02:07:24;;;;;;;11.02;3.15;;;;;;;-149.70;100.00;76385.78;5022377;28;20049;-62
2023/10/29 02:09:50;;;;;;;10.80;3.60;;;;;;;-149.70;100.00;76377.66;5021970;28;20041;-62
2023/10/29 02:12:17;;;;;;;11.18;3.55;;;;;;;-149.70;100.00;76377.66;5005443;28;20112;-63
2023/10/29 02:14:43;;;;;;;11.00;3.88;;;;;;;-149.70;100.00;76373.59;5022487;28;20049;-61
2023/10/29 02:17:11;;;;;;;10.35;4.07;;;;;;;-149.70;100.00;76369.53;5021512;28;20061;-61
2023/10/29 02:19:38;;;;;;;11.00;4.68;;;;;;;-149.70;100.00;76375.63;5020829;28;20069;-62
2023/10/29 02:22:05;;;;;;;14.48;3.40;;;;;;;-149.70;100.00;76373.59;5019350;28;20046;-61
2023/10/29 02:24:31;;;;;;;13.55;3.88;;;;;;;-149.70;100.00;76371.56;5019708;28;20060;-62
2023/10/29 02:26:58;;;;;;;11.88;3.67;;;;;;;-149.70;100.00;76365.44;5019960;28;20434;-62
2023/10/29 02:29:25;;;;;;;8.43;3.15;;;;;;;-149.70;100.00;76365.44;5018844;28;20076;-61
2023/10/29 02:31:51;;;;;;;10.00;3.88;;;;;;;-149.70;100.00;76379.69;5020953;28;20030;-61
2023/10/29 02:34:18;;;;;;;19.02;3.42;;;;;;;-149.70;100.00;76373.59;5020065;28;20104;-63
2023/10/29 02:36:45;;;;;;;8.07;3.72;;;;;;;-149.70;100.00;76371.56;5021875;28;20049;-62
2023/10/29 02:39:13;;;;;;;11.95;3.75;;;;;;;-149.70;100.00;76365.44;5002522;28;20104;-62
2023/10/29 02:41:40;;;;;;;9.52;4.22;;;;;;;-149.70;100.00;76377.66;5019234;28;20462;-61
2023/10/29 02:44:07;;;;;;;11.10;3.65;;;;;;;-149.70;100.00;76365.44;5018936;28;20528;-62
2023/10/29 02:46:36;;;;;;;12.05;3.83;;;;;;;-149.70;100.00;76371.56;5019604;28;20085;-62
2023/10/29 02:49:03;;;;;;;9.48;3.53;;;;;;;-149.70;100.00;76377.66;5019799;28;20449;-61
2023/10/29 02:51:29;;;;;;;12.73;3.35;;;;;;;-149.70;100.00;76371.56;5019503;28;20060;-62
2023/10/29 02:53:56;;;;;;;13.45;3.78;;;;;;;-149.70;100.00;76375.63;5006769;28;20112;-62
2023/10/29 02:56:22;;;;;;;12.40;4.00;;;;;;;-149.70;100.00;76381.72;4999875;28;20046;-62
2023/10/29 02:58:49;;;;;;;14.98;3.72;;;;;;;-149.70;100.00;76377.66;5000107;28;20415;-62
2023/10/29 03:01:15;;;;;;;15.98;4.38;;;;;;;-149.70;100.00;76373.59;4995246;28;20050;-61
2023/10/29 03:03:44;;;;;;;11.93;4.53;;;;;;;-149.70;100.00;76369.53;4991519;28;20077;-62
2023/10/29 03:06:11;;;;;;;15.82;4.55;;;;;;;-149.70;100.00;76371.56;4989808;28;20487;-61
2023/10/29 03:08:37;;;;;;;15.75;5.03;;;;;;;-149.70;100.00;76379.69;4990775;28;20151;-61
2023/10/29 03:11:04;;;;;;;14.13;4.47;;;;;;;-149.70;100.00;76365.44;4995208;28;20046;-61
2023/10/29 03:13:31;;;;;;;14.60;4.20;;;;;;;-149.70;100.00;76365.44;4997782;28;20466;-62
2023/10/29 03:15:57;;;;;;;17.73;4.65;;;;;;;-149.70;100.00;76361.38;4999315;28;20053;-61
2023/10/29 03:18:24;;;;;;;17.00;4.82;;;;;;;-149.70;100.00;76367.47;4995117;28;20129;-61
2023/10/29 03:20:50;;;;;;;14.77;5.60;;;;;;;-149.70;100.00;76361.38;4992807;28;20141;-61
2023/10/29 03:23:17;;;;;;;10.98;4.10;;;;;;;-149.70;100.00;76361.38;4993925;28;20062;-62
2023/10/29 03:25:44;;;;;;;13.00;4.60;;;;;;;-149.70;100.00;76357.31;4994534;28;20116;-61
2023/10/29 03:28:12;;;;;;;12.93;3.90;;;;;;;-149.70;100.00;76347.16;4993122;28;20073;-61
2023/10/29 03:30:39;;;;;;;13.40;4.28;;;;;;;-149.70;100.00;76353.25;4995413;28;20449;-61
2023/10/29 03:33:06;;;;;;;12.40;4.72;;;;;;;-149.70;100.00;76361.38;5001639;28;20081;-62
2023/10/29 03:35:33;;;;;;;14.07;4.22;;;;;;;-149.70;100.00;76349.19;5004480;28;20066;-61
2023/10/29 03:37:59;;;;;;;18.95;5.28;;;;;;;-149.70;100.00;76334.94;5006275;28;20046;-62
2023/10/29 03:40:26;;;;;;;10.70;4.72;;;;;;;-149.70;100.00;76324.78;5008496;28;20073;-62
2023/10/29 03:42:53;;;;;;;16.73;5.82;;;;;;;-149.70;100.00;76318.69;5006752;28;20054;-62
2023/10/29 03:45:20;;;;;;;14.57;4.82;;;;;;;-149.70;100.00;76310.56;4996623;28;20057;-62
2023/10/29 03:47:46;;;;;;;10.55;5.18;;;;;;;-149.70;100.00;76306.50;4997646;28;20053;-62
2023/10/29 03:50:13;;;;;;;19.48;5.40;;;;;;;-149.70;100.00;76300.38;4996201;28;20056;-62
2023/10/29 03:52:40;;;;;;;12.43;4.85;;;;;;;-149.70;100.00;76300.38;4997621;28;20577;-62
2023/10/29 03:55:06;;;;;;;18.35;5.95;;;;;;;-149.70;100.00;76284.13;5014035;28;20077;-62
2023/10/29 03:57:33;;;;;;;13.15;5.63;;;;;;;-149.70;100.00;76278.03;5019528;28;20060;-62
2023/10/29 03:59:59;;;;;;;13.48;6.20;;;;;;;-149.70;100.00;76290.22;5026492;28;20042;-62
2023/10/29 04:02:26;;;;;;;16.20;5.65;;;;;;;-149.70;100.00;76286.16;5026209;28;20026;-62
2023/10/29 04:04:53;;;;;;;16.77;5.82;;;;;;;-149.70;100.00;76284.13;5028745;28;20048;-62
2023/10/29 04:07:35;;;;;;;;;;;;;;;-149.70;100.00;76276.00;5029209;28;20061;-62
2023/10/29 04:10:02;;;;;;;20.20;6.03;;;;;;;-149.70;100.00;76271.91;5028978;28;19968;-62
2023/10/29 04:12:29;;;;;;;17.05;6.22;;;;;;;-149.70;100.00;76273.97;5029923;28;20045;-62
2023/10/29 04:14:55;;;;;;;14.05;5.88;;;;;;;-149.70;100.00;76276.00;5029581;28;20076;-62
2023/10/29 04:17:22;;;;;;;16.65;5.80;;;;;;;-149.70;100.00;76276.00;5029118;28;20129;-63
2023/10/29 04:19:49;;;;;;;12.23;6.32;;;;;;;-149.70;100.00;76271.91;5030123;28;20466;-62
2023/10/29 04:22:16;;;;;;;17.98;6.47;;;;;;;-149.70;100.00;76269.88;5030076;28;20557;-62
2023/10/29 04:24:43;;;;;;;16.58;6.38;;;;;;;-149.70;100.00;76257.69;5029949;28;20042;-62
2023/10/29 04:27:09;;;;;;;21.30;6.00;;;;;;;-149.70;100.00;76261.75;5029635;28;20072;-61
2023/10/29 04:29:36;;;;;;;15.90;5.63;;;;;;;-149.70;100.00;76265.81;5028694;28;20053;-63
2023/10/29 04:32:02;;;;;;;11.73;5.57;;;;;;;-149.70;100.00;76263.78;5029678;28;20050;-62
2023/10/29 04:34:29;;;;;;;15.32;5.45;;;;;;;-149.70;100.00;76257.69;5029284;28;20054;-62
2023/10/29 04:36:57;;;;;;;19.17;6.20;;;;;;;-149.70;100.00;76235.31;5028556;28;20046;-62
2023/10/29 04:39:24;;;;;;;17.55;5.30;;;;;;;-149.70;100.00;76241.41;5029332;28;20050;-63
2023/10/29 04:41:51;;;;;;;13.05;6.35;;;;;;;-149.70;100.00;76215.00;5028797;28;20411;-62
2023/10/29 04:44:17;;;;;;;16.48;5.18;;;;;;;-149.70;100.00;76217.03;5028350;28;20044;-62
2023/10/29 04:46:44;;;;;;;22.02;6.90;;;;;;;-149.70;100.00;76210.94;5028435;28;20050;-62
2023/10/29 04:49:10;;;;;;;18.30;6.93;;;;;;;-149.70;100.00;76198.72;5028751;28;20049;-62
2023/10/29 04:51:37;;;;;;;15.43;5.65;;;;;;;-149.70;100.00;76206.84;5028810;28;20054;-62
2023/10/29 04:54:04;;;;;;;18.50;5.90;;;;;;;-149.70;100.00;76194.66;5014991;28;20257;-62
2023/10/29 04:56:33;;;;;;;12.75;5.70;;;;;;;-149.70;100.00;76196.69;5009165;28;20050;-62
2023/10/29 04:58:59;;;;;;;15.27;5.28;;;;;;;-149.70;100.00;76194.66;5009113;28;20050;-62
2023/10/29 05:01:26;;;;;;;21.05;6.35;;;;;;;-149.70;100.00;76182.47;5010128;28;20054;-62
2023/10/29 05:03:53;;;;;;;19.77;5.63;;;;;;;-149.70;100.00;76182.47;5008945;28;20052;-62
2023/10/29 05:06:20;;;;;;;13.68;4.97;;;;;;;-149.70;100.00;76176.38;5009741;28;20062;-62
2023/10/29 05:08:47;;;;;;;17.33;5.38;;;;;;;-149.70;100.00;76174.31;5009263;28;20145;-62
2023/10/29 05:11:14;;;;;;;16.00;5.82;;;;;;;-149.70;100.00;76164.16;5009603;28;20043;-61
2023/10/29 05:13:41;;;;;;;15.45;5.53;;;;;;;-149.70;100.00;76158.06;5009022;28;20101;-62
2023/10/29 05:16:08;;;;;;;20.17;5.63;;;;;;;-149.70;100.00;76162.13;5009691;28;20513;-62
2023/10/29 05:18:35;;;;;;;23.27;5.78;;;;;;;-149.70;100.00;76162.13;5010215;28;20066;-62
2023/10/29 05:21:02;;;;;;;15.27;5.18;;;;;;;-149.70;100.00;76149.94;5009453;28;20052;-62
2023/10/29 05:23:30;;;;;;;14.95;5.35;;;;;;;-149.70;100.00;76147.91;5010155;28;20074;-62
2023/10/29 05:25:56;;;;;;;17.23;5.57;;;;;;;-149.70;100.00;76137.72;5009794;28;20050;-62
2023/10/29 05:28:23;;;;;;;15.75;5.32;;;;;;;-149.70;100.00;76143.84;5010905;28;20050;-62
2023/10/29 05:30:50;;;;;;;19.02;6.55;;;;;;;-149.70;100.00;76139.75;5010564;28;20046;-63
2023/10/29 05:33:17;;;;;;;18.25;5.50;;;;;;;-149.70;100.00;76127.56;5011540;28;20543;-62
2023/10/29 05:35:43;;;;;;;17.20;5.72;;;;;;;-149.70;100.00;76117.41;5009643;28;20046;-62
2023/10/29 05:38:10;;;;;;;19.13;6.05;;;;;;;-149.70;100.00;76121.47;5008706;28;20106;-62
2023/10/29 05:40:36;;;;;;;18.05;5.75;;;;;;;-149.70;100.00;76121.47;5007207;28;20054;-62
2023/10/29 05:43:03;;;;;;;19.85;4.88;;;;;;;-149.70;100.00;76119.44;5005378;28;20046;-63
2023/10/29 05:45:30;;;;;;;20.50;5.40;;;;;;;-149.70;100.00;76115.38;5003627;28;20046;-61
2023/10/29 05:47:56;;;;;;;21.08;5.80;;;;;;;-149.70;100.00;76117.41;5002404;28;20074;-62
2023/10/29 05:50:24;;;;;;;16.63;5.32;;;;;;;-149.70;100.00;76113.34;5003842;28;20046;-62
2023/10/29 05:52:50;;;;;;;15.52;5.65;;;;;;;-149.70;100.00;76109.28;5007426;28;20050;-62
2023/10/29 05:55:19;;;;;;;14.15;5.30;;;;;;;-149.70;100.00;76105.19;5023850;28;20053;-62
2023/10/29 05:57:46;;;;;;;20.48;5.63;;;;;;;-149.70;100.00;76105.19;5023311;28;20042;-62
2023/10/29 06:00:14;;;;;;;20.88;4.88;;;;;;;-149.70;100.00;76109.28;5023181;28;20042;-62
2023/10/29 06:02:41;;;;;;;14.13;4.80;;;;;;;-149.70;100.00;76113.34;5023410;28;20046;-62
2023/10/29 06:05:08;;;;;;;12.52;4.85;;;;;;;-149.70;100.00;76117.41;5022218;28;20037;-62
2023/10/29 06:07:36;;;;;;;20.92;5.25;;;;;;;-149.70;100.00;76109.28;5023675;28;20046;-62
2023/10/29 06:10:03;;;;;;;13.65;4.93;;;;;;;-149.70;100.00;76115.38;5023148;28;20046;-61
2023/10/29 06:12:30;;;;;;;15.45;4.65;;;;;;;-149.70;100.00;76103.16;5020135;28;20050;-62
2023/10/29 06:14:56;;;;;;;15.30;4.20;;;;;;;-149.70;100.00;76099.09;5021154;28;20046;-61
2023/10/29 06:17:23;;;;;;;17.52;4.90;;;;;;;-149.70;100.00;76097.06;5020735;28;20053;-62
2023/10/29 06:19:53;;;;;;;19.65;5.43;;;;;;;-149.70;100.00;76088.94;5021418;28;20120;-62
2023/10/29 06:22:19;;;;;;;13.40;4.22;;;;;;;-149.70;100.00;76097.06;5020965;28;20049;-62
2023/10/29 06:24:46;;;;;;;18.15;5.35;;;;;;;-149.70;100.00;76082.84;5022818;28;20460;-62
2023/10/29 06:27:13;;;;;;;17.17;5.78;;;;;;;-149.70;100.00;76084.88;5022757;28;20049;-62
2023/10/29 06:29:39;;;;;;;15.23;4.50;;;;;;;-149.70;100.00;76082.84;5024321;28;20057;-62
2023/10/29 06:32:06;;;;;;;9.85;3.95;;;;;;;-149.70;100.00;76080.81;5024431;28;20046;-62
2023/10/29 06:34:33;;;;;;;17.83;4.10;;;;;;;-149.70;100.00;76093.00;5024273;28;20046;-62
2023/10/29 06:36:59;;;;;;;19.30;4.82;;;;;;;-149.70;100.00;76078.78;5024086;28;20041;-62
2023/10/29 06:39:26;;;;;;;11.02;4.28;;;;;;;-149.70;100.00;76076.75;5024281;28;20054;-62
2023/10/29 06:41:53;;;;;;;20.30;4.40;;;;;;;-149.70;100.00;76080.81;5003053;28;20041;-62
2023/10/29 06:44:20;;;;;;;21.02;4.72;;;;;;;-149.70;100.00;76072.66;5019982;28;20457;-63
2023/10/29 06:46:47;;;;;;;11.27;3.85;;;;;;;-149.70;100.00;76076.75;5020081;28;20041;-62
2023/10/29 06:49:13;;;;;;;12.35;4.45;;;;;;;-149.70;100.00;76082.84;5019312;28;20042;-61
2023/10/29 06:51:40;;;;;;;14.63;4.38;;;;;;;-149.70;100.00;76082.84;5019397;28;20410;-62
2023/10/29 06:54:06;;;;;;;15.70;3.67;;;;;;;-149.70;100.00;76088.94;5005737;28;20047;-61
2023/10/29 06:56:33;;;;;;;13.32;4.68;;;;;;;-149.70;100.00;76082.84;4998724;28;20080;-61
2023/10/29 06:59:00;;;;;;;15.40;4.50;;;;;;;-149.70;100.00;76088.94;4998880;28;20491;-61
2023/10/29 07:01:27;;;;;;;19.25;4.35;;;;;;;-149.70;100.00;76088.94;4999421;28;20093;-61
2023/10/29 07:03:54;;;;;;;18.92;4.47;;;;;;;-149.70;100.00;76084.88;4999251;28;20042;-61
2023/10/29 07:06:21;;;;;;;14.15;3.88;;;;;;;-149.70;100.00;76084.88;5001018;28;20038;-61
2023/10/29 07:08:47;;;;;;;13.93;4.63;;;;;;;-149.70;100.00;76078.78;5005927;28;20050;-63
2023/10/29 07:11:14;;;;;;;13.90;4.38;;;;;;;-149.70;100.00;76072.66;5008611;28;20110;-61
2023/10/29 07:13:41;;;;;;;22.20;4.88;;;;;;;-149.70;100.00;76064.53;5007193;28;20042;-61
2023/10/29 07:16:09;;;;;;;12.32;4.65;;;;;;;-149.70;100.00;76056.41;5008785;28;20106;-61
2023/10/29 07:18:36;;;;;;;12.65;3.50;;;;;;;-149.70;100.00;76070.63;5008148;28;20054;-61
2023/10/29 07:21:04;;;;;;;10.57;4.28;;;;;;;-149.70;100.00;76062.50;5008150;28;20104;-62
2023/10/29 07:23:31;;;;;;;20.83;4.43;;;;;;;-149.70;100.00;76064.53;5008687;28;20050;-62
2023/10/29 07:25:59;;;;;;;12.50;4.10;;;;;;;-149.70;100.00;76058.44;5008324;28;20073;-62
2023/10/29 07:28:26;;;;;;;18.35;4.78;;;;;;;-149.70;100.00;76064.53;5007696;28;20050;-62
2023/10/29 07:30:53;;;;;;;20.88;4.88;;;;;;;-149.70;100.00;76044.22;5009110;28;20046;-63
2023/10/29 07:33:19;;;;;;;13.65;4.47;;;;;;;-149.70;100.00;76060.47;5009566;28;20054;-62
2023/10/29 07:35:47;;;;;;;13.48;4.63;;;;;;;-149.70;100.00;76058.44;5011044;28;20046;-63
2023/10/29 07:38:13;;;;;;;9.48;4.13;;;;;;;-149.70;100.00;76064.53;5009569;28;20047;-62
2023/10/29 07:40:41;;;;;;;16.80;5.55;;;;;;;-149.70;100.00;76050.31;5009461;28;20046;-62
2023/10/29 07:43:07;;;;;;;16.20;5.13;;;;;;;-149.70;100.00;76048.28;5009218;28;20034;-62
2023/10/29 07:45:34;;;;;;;20.70;5.53;;;;;;;-149.70;100.00;76050.31;5008095;28;20056;-62
2023/10/29 07:48:01;;;;;;;17.13;5.13;;;;;;;-149.70;100.00;76066.56;5007685;28;20579;-61
2023/10/29 07:50:28;;;;;;;21.05;4.82;;;;;;;-149.70;100.00;76076.75;5004750;28;20050;-62
2023/10/29 07:52:55;;;;;;;13.32;6.35;;;;;;;-149.70;100.00;76064.53;5007443;28;20116;-62
2023/10/29 07:55:22;;;;;;;15.88;4.60;;;;;;;-149.70;100.00;76044.22;5020071;28;20054;-62
2023/10/29 07:57:48;;;;;;;18.10;5.50;;;;;;;-149.70;100.00;76052.34;5016318;28;20045;-62
2023/10/29 08:00:15;;;;;;;11.45;4.82;;;;;;;-149.70;100.00;75930.34;5015247;28;20042;-61
2023/10/29 08:02:43;;;;;;;12.10;4.32;;;;;;;-149.70;100.00;76023.88;5014622;28;20944;-61
2023/10/29 08:05:14;;;;;;;12.63;4.88;;;;;;;-149.70;100.00;76038.09;5014687;28;20544;-62
2023/10/29 08:07:41;;;;;;;17.70;4.97;;;;;;;-149.70;100.00;76036.06;5014439;28;20053;-61
2023/10/29 08:10:08;;;;;;;16.40;5.82;;;;;;;-149.70;100.00;76036.06;5014770;28;20042;-62
2023/10/29 08:12:35;;;;;;;13.05;4.70;;;;;;;-149.70;100.00;76040.13;5014682;28;20053;-62
2023/10/29 08:15:02;;;;;;;16.67;4.55;;;;;;;-149.70;100.00;76038.09;5014373;28;20112;-62
2023/10/29 08:17:29;;;;;;;15.70;5.22;;;;;;;-149.70;100.00;76040.13;5014453;28;20421;-62
2023/10/29 08:19:58;;;;;;;9.13;4.60;;;;;;;-149.70;100.00;76044.22;5015715;28;20133;-62
2023/10/29 08:22:25;;;;;;;9.32;4.50;;;;;;;-149.70;100.00;76023.88;5026563;28;20052;-63
2023/10/29 08:24:52;;;;;;;13.63;4.65;;;;;;;-149.70;100.00;76038.09;5028930;28;20057;-62
2023/10/29 08:27:18;;;;;;;14.98;4.70;;;;;;;-149.70;100.00;76021.84;5030759;28;20045;-62
2023/10/29 08:29:49;;;;;;;13.57;4.50;;;;;;;-149.70;100.00;76019.81;5030259;28;20041;-61
2023/10/29 08:32:17;;;;;;;14.13;4.32;;;;;;;-149.70;100.00;76019.81;5030857;28;20052;-62
2023/10/29 08:34:44;;;;;;;13.52;5.30;;;;;;;-149.70;100.00;76019.81;5031126;28;20161;-62
2023/10/29 08:37:11;;;;;;;13.93;4.22;;;;;;;-149.70;100.00;76019.81;5031459;28;20101;-62
2023/10/29 08:39:37;;;;;;;11.73;4.03;;;;;;;-149.70;100.00;76019.81;5031783;28;20076;-62
2023/10/29 08:42:05;;;;;;;15.32;4.55;;;;;;;-149.70;100.00;76015.75;5031710;28;20025;-61
2023/10/29 08:44:32;;;;;;;9.10;4.65;;;;;;;-149.70;100.00;76013.72;5030451;28;20129;-62
2023/10/29 08:47:00;;;;;;;12.02;4.07;;;;;;;-149.70;100.00;75999.47;5031488;28;20042;-62
2023/10/29 08:49:27;;;;;;;13.02;4.78;;;;;;;-149.70;100.00;76009.66;5031629;28;20053;-62
2023/10/29 08:51:53;;;;;;;15.63;4.63;;;;;;;-149.70;100.00;76007.63;5031232;28;20056;-61
2023/10/29 08:54:20;;;;;;;9.02;3.38;;;;;;;-149.70;100.00;76003.53;4997406;28;20512;-62
2023/10/29 08:56:46;;;;;;;7.03;3.88;;;;;;;-149.70;100.00;75995.41;5010880;28;20085;-62
2023/10/29 08:59:15;;;;;;;11.57;3.95;;;;;;;-149.70;100.00;75989.31;5007856;28;20126;-61
2023/10/29 09:01:42;;;;;;;8.50;3.38;;;;;;;-149.70;100.00;75983.22;5001656;28;20478;-61
2023/10/29 09:04:10;;;;;;;12.57;3.75;;;;;;;-149.70;100.00;75987.28;5002740;28;20047;-61
2023/10/29 09:06:37;;;;;;;7.97;3.67;;;;;;;-149.70;100.00;75979.16;5004473;28;20517;-61
2023/10/29 09:09:04;;;;;;;14.02;3.92;;;;;;;-149.70;100.00;75962.88;5003444;28;20050;-60
2023/10/29 09:11:32;;;;;;;9.95;3.10;;;;;;;-149.70;100.00;75958.81;5002252;28;20046;-61
2023/10/29 09:14:01;;;;;;;8.43;3.50;;;;;;;-149.70;100.00;75938.50;5000674;28;20498;-61
2023/10/29 09:16:27;;;;;;;10.20;3.22;;;;;;;-149.70;100.00;75942.56;5000089;28;20495;-60
2023/10/29 09:18:54;;;;;;;8.77;3.20;;;;;;;-149.70;100.00;75936.44;4998551;28;20050;-60
2023/10/29 09:21:20;;;;;;;8.32;3.58;;;;;;;-149.70;100.00;75936.44;4999263;28;20050;-61
2023/10/29 09:23:47;;;;;;;10.18;3.28;;;;;;;-149.70;100.00;75940.53;4978881;28;20074;-60
2023/10/29 09:26:13;;;;;;;12.13;3.45;;;;;;;-149.70;100.00;75930.34;4995155;28;20053;-60
2023/10/29 09:28:43;;;;;;;7.72;2.80;;;;;;;-149.70;100.00;75944.59;4993467;28;20047;-60
2023/10/29 09:31:16;;;;;;;7.93;2.83;;;;;;;-149.70;100.00;75926.28;4992714;28;20043;-60
2023/10/29 09:33:47;;;;;;;7.55;2.67;;;;;;;-149.70;100.00;75920.19;4992572;28;20049;-60
2023/10/29 09:36:13;;;;;;;8.98;2.35;;;;;;;-149.70;100.00;75914.09;4993297;28;20121;-62
2023/10/29 09:38:41;;;;;;;10.57;3.38;;;;;;;-149.70;100.00;75908.00;4992526;28;20125;-62
2023/10/29 09:41:09;;;;;;;11.07;4.35;;;;;;;-149.70;100.00;75908.00;4993178;28;20058;-60
2023/10/29 09:43:41;;;;;;;9.73;2.80;;;;;;;-149.70;100.00;75901.88;4993461;28;20054;-60
2023/10/29 09:46:09;;;;;;;7.68;2.58;;;;;;;-149.70;100.00;75899.84;4994003;28;20414;-62
2023/10/29 09:48:37;;;;;;;8.00;2.50;;;;;;;-149.70;100.00;75893.75;4994409;28;20070;-60
2023/10/29 09:51:06;;;;;;;5.82;2.33;;;;;;;-149.70;100.00;75916.13;4995545;28;20056;-60
2023/10/29 09:53:37;;;;;;;6.65;2.17;;;;;;;-149.70;100.00;75920.19;4982751;28;20050;-60
2023/10/29 09:56:08;;;;;;;6.60;2.30;;;;;;;-149.70;100.00;75914.09;4995331;28;20060;-60
2023/10/29 09:58:36;;;;;;;6.78;2.40;;;;;;;-149.70;100.00;75914.09;4995373;28;20050;-61
2023/10/29 10:01:04;;;;;;;9.55;2.17;;;;;;;-149.70;100.00;75889.69;4995215;28;20104;-60
2023/10/29 10:03:31;;;;;;;7.78;2.58;;;;;;;-149.70;100.00;75891.72;4996349;28;20073;-61
2023/10/29 10:05:59;;;;;;;9.75;2.45;;;;;;;-149.70;100.00;75910.03;4996208;28;20046;-61
2023/10/29 10:08:30;;;;;;;9.65;2.10;;;;;;;-149.70;100.00;75895.78;4996160;28;20074;-61
2023/10/29 10:10:58;;;;;;;9.02;2.22;;;;;;;-149.70;100.00;75891.72;4996499;28;20042;-62
2023/10/29 10:13:38;;;;;;;5.32;2.15;;;;;;;-149.70;100.00;75887.66;4997769;28;20046;-62
2023/10/29 10:16:06;;;;;;;8.13;2.28;;;;;;;-149.70;100.00;75897.81;4996769;28;20495;-62
2023/10/29 10:18:52;;;;;;;5.10;2.33;;;;;;;-149.70;100.00;75905.97;4997851;28;20043;-62
2023/10/29 10:21:21;;;;;;;7.85;1.80;;;;;;;-149.70;100.00;75889.69;4998328;28;20093;-63
2023/10/29 10:23:54;;;;;;;4.03;1.88;;;;;;;-149.70;100.00;75881.56;4999520;28;20065;-62
2023/10/29 10:26:34;;;;;;;12.32;2.00;;;;;;;-149.70;100.00;75889.69;4999629;28;20046;-61
2023/10/29 10:29:07;;;;;;;8.48;1.70;;;;;;;-149.70;100.00;75885.63;4999840;28;20050;-61
2023/10/29 10:31:35;;;;;;;14.52;2.33;;;;;;;-149.70;100.00;75871.41;4999236;28;20104;-62
2023/10/29 10:34:18;;;;;;;5.18;1.60;;;;;;;-149.70;100.00;75873.44;4999237;28;20043;-61
2023/10/29 10:36:50;;;;;;;6.60;1.55;;;;;;;-149.70;100.00;75861.22;5001144;28;20113;-61
2023/10/29 10:39:23;;;;;;;3.72;1.50;;;;;;;-149.70;100.00;75853.09;5001827;28;20077;-61
2023/10/29 10:41:49;;;;;;;10.73;1.70;;;;;;;-149.70;100.00;75840.91;5001335;28;20453;-64
2023/10/29 10:44:20;;;;;;;7.88;1.40;;;;;;;-149.70;100.00;75855.13;5002123;28;20046;-61
2023/10/29 10:46:49;;;;;;;5.95;1.58;;;;;;;-149.70;100.00;75834.81;5018641;28;20126;-61
2023/10/29 10:49:17;;;;;;;6.28;1.65;;;;;;;-149.70;100.00;75836.84;5020870;28;20046;-61
2023/10/29 10:51:46;;;;;;;5.05;1.50;;;;;;;-149.70;100.00;75838.88;5020970;28;20048;-62
2023/10/29 10:54:18;;;;;;;6.90;1.73;;;;;;;-149.70;100.00;75840.91;5006317;28;20042;-61
2023/10/29 10:56:46;;;;;;;4.93;1.67;;;;;;;-149.70;100.00;75832.78;5002438;28;20046;-62
2023/10/29 10:59:14;;;;;;;6.43;1.65;;;;;;;-149.70;100.00;75840.91;5002863;28;20050;-61
2023/10/29 11:01:41;;;;;;;8.05;2.00;;;;;;;-149.70;100.00;75820.56;5002053;28;20050;-61
2023/10/29 11:04:09;;;;;;;13.55;1.83;;;;;;;-149.70;100.00;75820.56;5001910;28;20053;-62
2023/10/29 11:06:38;;;;;;;3.15;1.65;;;;;;;-149.70;100.00;75806.34;5001431;28;20077;-63